createdAt,value
2019-05-19T00:01:17.019Z,30.03
2019-05-19T00:02:51.468Z,29.93
2019-05-19T00:04:26.478Z,31.10
2019-05-19T00:06:00.837Z,30.20
2019-05-19T00:07:35.838Z,28.47
2019-05-19T00:09:10.295Z,26.50
2019-05-19T00:10:45.186Z,26.97
2019-05-19T00:12:19.534Z,27.67
2019-05-19T00:13:54.448Z,28.10
2019-05-19T00:15:28.922Z,26.40
2019-05-19T00:17:03.842Z,27.77
2019-05-19T00:18:38.201Z,26.83
2019-05-19T00:20:13.317Z,26.50
2019-05-19T00:21:47.966Z,26.27
2019-05-19T00:23:23.308Z,25.47
2019-05-19T00:24:57.654Z,26.67
2019-05-19T00:26:32.601Z,27.87
2019-05-19T00:28:07.105Z,29.17
2019-05-19T00:29:42.375Z,26.03
2019-05-19T00:31:16.750Z,28.17
2019-05-19T00:32:51.686Z,28.57
2019-05-19T00:34:26.045Z,29.57
2019-05-19T00:36:00.962Z,28.53
2019-05-19T00:37:35.368Z,27.83
2019-05-19T00:39:10.291Z,27.43
2019-05-19T00:40:44.721Z,27.30
2019-05-19T00:42:19.634Z,27.10
2019-05-19T00:43:54.470Z,26.53
2019-05-19T00:45:29.386Z,26.60
2019-05-19T00:47:03.857Z,28.43
2019-05-19T00:48:38.798Z,25.87
2019-05-19T00:50:13.395Z,27.03
2019-05-19T00:51:48.597Z,25.43
2019-05-19T00:53:23.171Z,26.50
2019-05-19T00:54:58.078Z,25.97
2019-05-19T00:56:33.055Z,25.37
2019-05-19T00:58:08.882Z,25.83
2019-05-19T00:59:43.934Z,27.13
2019-05-19T01:01:19.002Z,26.23
2019-05-19T01:02:53.660Z,25.67
2019-05-19T01:04:28.589Z,27.57
2019-05-19T01:06:02.961Z,25.97
2019-05-19T01:07:38.231Z,26.37
2019-05-19T01:09:12.857Z,27.27
2019-05-19T01:10:47.824Z,26.30
2019-05-19T01:12:22.598Z,27.37
2019-05-19T01:13:57.743Z,26.77
2019-05-19T01:15:32.118Z,27.13
2019-05-19T01:17:07.020Z,25.27
2019-05-19T01:18:41.445Z,28.53
2019-05-19T01:20:16.721Z,26.33
2019-05-19T01:21:51.185Z,26.90
2019-05-19T01:23:26.370Z,27.80
2019-05-19T01:25:00.755Z,27.97
2019-05-19T01:26:36.022Z,27.30
2019-05-19T01:28:10.675Z,27.03
2019-05-19T01:29:45.586Z,27.40
2019-05-19T01:31:19.967Z,26.50
2019-05-19T01:32:55.197Z,28.53
2019-05-19T01:34:29.562Z,27.73
2019-05-19T01:36:04.570Z,27.93
2019-05-19T01:37:38.954Z,29.37
2019-05-19T01:39:14.202Z,29.07
2019-05-19T01:40:48.833Z,29.20
2019-05-19T01:42:24.086Z,28.50
2019-05-19T01:43:58.862Z,28.20
2019-05-19T01:45:33.905Z,28.87
2019-05-19T01:47:08.281Z,27.70
2019-05-19T01:48:43.194Z,27.63
2019-05-19T01:50:18.650Z,27.70
2019-05-19T01:51:53.988Z,28.30
2019-05-19T01:53:28.871Z,26.67
2019-05-19T01:55:03.926Z,27.67
2019-05-19T01:56:38.305Z,27.93
2019-05-19T01:58:13.558Z,27.70
2019-05-19T01:59:48.204Z,29.37
2019-05-19T02:01:23.101Z,27.67
2019-05-19T02:02:57.458Z,27.20
2019-05-19T02:04:32.390Z,28.27
2019-05-19T02:06:06.838Z,26.87
2019-05-19T02:07:42.128Z,27.23
2019-05-19T02:09:16.549Z,26.53
2019-05-19T02:10:51.570Z,27.57
2019-05-19T02:12:25.955Z,26.53
2019-05-19T02:14:01.456Z,26.33
2019-05-19T02:15:35.875Z,26.67
2019-05-19T02:17:11.274Z,27.77
2019-05-19T02:18:46.102Z,26.53
2019-05-19T02:20:32.652Z,27.13
2019-05-19T02:21:57.483Z,25.97
2019-05-19T02:23:32.402Z,26.73
2019-05-19T02:25:07.281Z,25.90
2019-05-19T02:26:42.257Z,26.23
2019-05-19T02:28:16.906Z,27.30
2019-05-19T02:29:51.882Z,27.83
2019-05-19T02:31:26.272Z,27.33
2019-05-19T02:33:01.232Z,27.30
2019-05-19T02:34:35.650Z,27.73
2019-05-19T02:36:10.542Z,27.00
2019-05-19T02:37:45.511Z,26.80
2019-05-19T02:39:20.432Z,27.63
2019-05-19T02:40:56.495Z,26.67
2019-05-19T02:42:33.736Z,27.30
2019-05-19T02:44:08.904Z,29.37
2019-05-19T02:45:44.746Z,27.23
2019-05-19T02:47:20.907Z,27.53
2019-05-19T02:48:57.312Z,27.37
2019-05-19T02:50:50.802Z,28.37
2019-05-19T02:52:15.440Z,27.03
2019-05-19T02:53:50.870Z,27.93
2019-05-19T02:55:27.619Z,27.30
2019-05-19T02:57:04.053Z,28.53
2019-05-19T02:58:40.115Z,26.67
2019-05-19T03:00:14.890Z,27.33
2019-05-19T03:02:03.509Z,26.83
2019-05-19T03:03:38.763Z,27.67
2019-05-19T03:05:13.511Z,26.73
2019-05-19T03:06:48.433Z,26.57
2019-05-19T03:08:22.823Z,26.67
2019-05-19T03:09:57.807Z,26.27
2019-05-19T03:11:32.288Z,26.90
2019-05-19T03:13:07.304Z,26.30
2019-05-19T03:14:41.774Z,26.37
2019-05-19T03:16:16.708Z,26.83
2019-05-19T03:17:51.092Z,25.13
2019-05-19T03:19:26.082Z,25.57
2019-05-19T03:21:10.550Z,26.03
2019-05-19T03:22:37.107Z,25.83
2019-05-19T03:24:11.580Z,25.57
2019-05-19T03:25:46.637Z,26.03
2019-05-19T03:27:21.068Z,25.13
2019-05-19T03:28:56.003Z,25.53
2019-05-19T03:30:42.205Z,24.93
2019-05-19T03:32:39.446Z,23.07
2019-05-19T03:34:15.123Z,24.10
2019-05-19T03:35:49.478Z,24.33
2019-05-19T03:37:24.403Z,24.70
2019-05-19T03:38:59.147Z,24.80
2019-05-19T03:40:34.155Z,26.03
2019-05-19T03:42:10.519Z,24.40
2019-05-19T03:43:45.619Z,24.67
2019-05-19T03:45:20.131Z,24.23
2019-05-19T03:46:55.290Z,23.73
2019-05-19T03:48:29.750Z,23.53
2019-05-19T03:50:04.792Z,24.20
2019-05-19T03:51:39.572Z,24.47
2019-05-19T03:53:14.770Z,25.00
2019-05-19T03:54:49.480Z,26.03
2019-05-19T03:56:24.401Z,26.03
2019-05-19T03:57:58.790Z,25.17
2019-05-19T03:59:33.718Z,25.00
2019-05-19T04:01:08.367Z,24.13
2019-05-19T04:02:43.303Z,24.93
2019-05-19T04:04:18.060Z,25.03
2019-05-19T04:05:52.979Z,24.47
2019-05-19T04:07:27.386Z,23.67
2019-05-19T04:09:02.376Z,23.53
2019-05-19T04:10:36.790Z,24.47
2019-05-19T04:12:12.074Z,22.57
2019-05-19T04:13:46.480Z,22.43
2019-05-19T04:15:21.527Z,24.43
2019-05-19T04:16:55.976Z,23.20
2019-05-19T04:18:30.909Z,21.87
2019-05-19T04:20:05.652Z,23.43
2019-05-19T04:21:48.778Z,23.17
2019-05-19T04:23:17.066Z,24.47
2019-05-19T04:24:52.094Z,23.20
2019-05-19T04:26:26.937Z,23.33
2019-05-19T04:28:01.874Z,23.93
2019-05-19T04:29:39.341Z,22.70
2019-05-19T04:31:12.984Z,21.77
2019-05-19T04:32:47.352Z,22.23
2019-05-19T04:34:22.368Z,22.33
2019-05-19T04:35:57.618Z,22.30
2019-05-19T04:37:32.759Z,22.40
2019-05-19T04:39:07.992Z,21.03
2019-05-19T04:40:43.773Z,22.63
2019-05-19T04:42:18.179Z,21.80
2019-05-19T04:43:53.203Z,21.17
2019-05-19T04:45:27.800Z,20.53
2019-05-19T04:47:02.718Z,20.80
2019-05-19T04:48:37.155Z,21.40
2019-05-19T04:50:12.231Z,20.70
2019-05-19T04:51:46.778Z,21.77
2019-05-19T04:53:21.776Z,20.80
2019-05-19T04:54:56.704Z,19.93
2019-05-19T04:56:31.642Z,20.47
2019-05-19T04:58:06.153Z,19.83
2019-05-19T04:59:41.070Z,18.90
2019-05-19T05:01:15.467Z,18.80
2019-05-19T05:02:50.475Z,17.63
2019-05-19T05:04:29.027Z,17.60
2019-05-19T05:06:01.607Z,19.00
2019-05-19T05:07:35.981Z,18.10
2019-05-19T05:09:10.908Z,18.23
2019-05-19T05:10:45.369Z,17.37
2019-05-19T05:12:20.573Z,16.57
2019-05-19T05:13:55.279Z,17.43
2019-05-19T05:15:30.226Z,17.20
2019-05-19T05:17:04.710Z,16.27
2019-05-19T05:18:39.911Z,17.97
2019-05-19T05:20:14.715Z,16.57
2019-05-19T05:21:49.670Z,17.60
2019-05-19T05:23:24.041Z,16.57
2019-05-19T05:24:59.123Z,16.93
2019-05-19T05:26:33.543Z,16.87
2019-05-19T05:28:08.497Z,17.37
2019-05-19T05:29:43.217Z,16.80
2019-05-19T05:31:18.204Z,16.43
2019-05-19T05:32:52.604Z,16.63
2019-05-19T05:34:30.179Z,17.27
2019-05-19T05:36:05.387Z,17.47
2019-05-19T05:37:40.326Z,16.90
2019-05-19T05:39:15.043Z,16.87
2019-05-19T05:40:50.187Z,16.33
2019-05-19T05:42:24.583Z,14.87
2019-05-19T05:43:59.502Z,14.80
2019-05-19T05:45:34.533Z,13.57
2019-05-19T05:47:09.488Z,13.67
2019-05-19T05:48:43.850Z,14.63
2019-05-19T05:50:18.771Z,13.87
2019-05-19T05:51:53.167Z,14.10
2019-05-19T05:53:28.351Z,13.93
2019-05-19T05:55:02.885Z,13.60
2019-05-19T05:56:38.212Z,13.23
2019-05-19T05:58:12.879Z,12.77
2019-05-19T05:59:47.911Z,13.00
2019-05-19T06:01:22.370Z,13.07
2019-05-19T06:02:57.310Z,12.53
2019-05-19T06:04:31.675Z,13.27
2019-05-19T06:06:06.629Z,13.10
2019-05-19T06:07:41.254Z,11.47
2019-05-19T06:09:16.306Z,12.57
2019-05-19T06:10:50.696Z,12.00
2019-05-19T06:12:25.895Z,11.93
2019-05-19T06:14:00.348Z,12.17
2019-05-19T06:15:35.311Z,11.87
2019-05-19T06:17:09.810Z,11.77
2019-05-19T06:18:44.732Z,11.93
2019-05-19T06:20:19.583Z,11.53
2019-05-19T06:21:55.358Z,10.70
2019-05-19T06:23:30.157Z,10.70
2019-05-19T06:25:06.789Z,11.50
2019-05-19T06:26:41.606Z,11.10
2019-05-19T06:28:17.135Z,11.30
2019-05-19T06:29:51.917Z,11.07
2019-05-19T06:31:27.472Z,11.17
2019-05-19T06:33:03.973Z,10.73
2019-05-19T06:34:39.504Z,11.10
2019-05-19T06:36:14.472Z,10.13
2019-05-19T06:37:50.005Z,10.40
2019-05-19T06:39:24.877Z,10.13
2019-05-19T06:41:00.441Z,10.83
2019-05-19T06:42:35.358Z,10.70
2019-05-19T06:44:11.208Z,10.70
2019-05-19T06:45:46.020Z,10.30
2019-05-19T06:47:21.545Z,10.07
2019-05-19T06:48:56.355Z,10.50
2019-05-19T06:50:32.175Z,9.97
2019-05-19T06:52:06.981Z,10.60
2019-05-19T06:53:42.763Z,9.63
2019-05-19T06:55:17.935Z,9.27
2019-05-19T06:56:53.458Z,9.83
2019-05-19T06:58:28.329Z,10.03
2019-05-19T07:00:03.923Z,9.40
2019-05-19T07:01:38.731Z,9.00
2019-05-19T07:03:14.323Z,8.87
2019-05-19T07:04:49.118Z,9.37
2019-05-19T07:06:24.665Z,9.33
2019-05-19T07:07:59.475Z,9.67
2019-05-19T07:09:34.465Z,9.23
2019-05-19T07:11:09.269Z,8.93
2019-05-19T07:12:45.081Z,9.67
2019-05-19T07:14:19.890Z,8.77
2019-05-19T07:15:55.685Z,9.17
2019-05-19T07:17:30.966Z,9.20
2019-05-19T07:19:06.552Z,8.70
2019-05-19T07:20:41.623Z,8.13
2019-05-19T07:22:17.652Z,8.50
2019-05-19T07:23:52.423Z,8.43
2019-05-19T07:25:27.981Z,9.43
2019-05-19T07:27:03.257Z,8.47
2019-05-19T07:28:39.294Z,9.40
2019-05-19T07:30:15.628Z,8.53
2019-05-19T07:31:50.593Z,9.13
2019-05-19T07:33:25.337Z,8.50
2019-05-19T07:35:00.649Z,8.07
2019-05-19T07:36:35.299Z,9.10
2019-05-19T07:38:10.435Z,8.50
2019-05-19T07:39:44.838Z,8.53
2019-05-19T07:41:20.017Z,8.63
2019-05-19T07:42:54.371Z,8.23
2019-05-19T07:44:29.924Z,8.50
2019-05-19T07:46:05.080Z,8.60
2019-05-19T07:47:40.692Z,7.73
2019-05-19T07:49:15.942Z,8.23
2019-05-19T07:50:52.348Z,8.40
2019-05-19T07:52:27.318Z,8.47
2019-05-19T07:54:02.665Z,8.50
2019-05-19T07:55:37.629Z,8.40
2019-05-19T07:57:13.247Z,9.00
2019-05-19T07:58:48.479Z,9.47
2019-05-19T08:00:23.810Z,9.33
2019-05-19T08:01:58.801Z,9.03
2019-05-19T08:03:34.150Z,9.10
2019-05-19T08:05:09.534Z,9.73
2019-05-19T08:06:45.182Z,9.57
2019-05-19T08:08:20.147Z,9.23
2019-05-19T08:09:55.485Z,9.70
2019-05-19T08:11:30.540Z,9.20
2019-05-19T08:13:05.933Z,9.30
2019-05-19T08:14:40.906Z,8.80
2019-05-19T08:16:16.770Z,9.03
2019-05-19T08:17:51.822Z,9.63
2019-05-19T08:19:27.191Z,9.70
2019-05-19T08:21:02.525Z,9.97
2019-05-19T08:22:37.862Z,9.60
2019-05-19T08:24:13.109Z,9.80
2019-05-19T08:25:48.975Z,9.77
2019-05-19T08:27:24.030Z,9.60
2019-05-19T08:28:59.383Z,9.60
2019-05-19T08:30:34.466Z,9.50
2019-05-19T08:32:09.788Z,9.60
2019-05-19T08:33:45.045Z,8.83
2019-05-19T08:35:20.373Z,9.30
2019-05-19T08:36:55.406Z,10.13
2019-05-19T08:38:30.982Z,8.70
2019-05-19T08:40:06.353Z,9.60
2019-05-19T08:41:41.716Z,9.10
2019-05-19T08:43:17.439Z,8.97
2019-05-19T08:44:52.797Z,9.57
2019-05-19T08:46:28.393Z,8.93
2019-05-19T08:48:03.969Z,9.60
2019-05-19T08:49:38.932Z,9.30
2019-05-19T08:51:14.285Z,9.73
2019-05-19T08:52:49.520Z,8.77
2019-05-19T08:54:24.876Z,8.33
2019-05-19T08:55:59.848Z,9.70
2019-05-19T08:57:35.196Z,9.13
2019-05-19T08:59:09.948Z,9.23
2019-05-19T09:00:45.134Z,8.77
2019-05-19T09:02:19.523Z,9.47
2019-05-19T09:03:54.685Z,9.10
2019-05-19T09:05:29.096Z,8.77
2019-05-19T09:07:04.295Z,8.43
2019-05-19T09:08:39.106Z,8.97
2019-05-19T09:10:15.061Z,8.93
2019-05-19T09:11:49.512Z,8.67
2019-05-19T09:13:24.419Z,8.40
2019-05-19T09:14:58.827Z,8.20
2019-05-19T09:16:33.983Z,8.50
2019-05-19T09:18:08.396Z,8.70
2019-05-19T09:19:43.416Z,8.27
2019-05-19T09:21:17.864Z,7.93
2019-05-19T09:22:53.439Z,8.80
2019-05-19T09:24:30.519Z,8.20
2019-05-19T09:26:04.542Z,8.57
2019-05-19T09:27:38.965Z,8.07
2019-05-19T09:29:13.929Z,7.60
2019-05-19T09:30:48.413Z,8.13
2019-05-19T09:32:23.588Z,8.57
2019-05-19T09:33:58.102Z,8.10
2019-05-19T09:35:33.309Z,7.93
2019-05-19T09:37:07.682Z,8.30
2019-05-19T09:38:42.626Z,8.47
2019-05-19T09:40:17.251Z,7.93
2019-05-19T09:41:52.536Z,7.87
2019-05-19T09:43:27.183Z,7.70
2019-05-19T09:45:02.568Z,7.57
2019-05-19T09:46:37.031Z,7.37
2019-05-19T09:48:12.281Z,8.13
2019-05-19T09:49:46.707Z,7.27
2019-05-19T09:51:21.690Z,8.30
2019-05-19T09:52:56.111Z,7.93
2019-05-19T09:54:44.173Z,7.90
2019-05-19T09:56:09.134Z,7.87
2019-05-19T09:57:45.021Z,7.60
2019-05-19T09:59:19.970Z,8.07
2019-05-19T10:00:55.316Z,8.07
2019-05-19T10:02:30.363Z,7.73
2019-05-19T10:04:07.152Z,7.77
2019-05-19T10:05:42.506Z,8.50
2019-05-19T10:07:17.934Z,7.83
2019-05-19T10:09:00.893Z,7.70
2019-05-19T10:11:18.753Z,7.60
2019-05-19T10:12:53.729Z,7.80
2019-05-19T10:14:28.417Z,7.67
2019-05-19T10:16:03.408Z,7.37
2019-05-19T10:17:37.819Z,7.63
2019-05-19T10:19:13.007Z,7.60
2019-05-19T10:20:50.387Z,7.47
2019-05-19T10:22:25.317Z,7.27
2019-05-19T10:24:00.754Z,6.90
2019-05-19T10:25:36.299Z,7.07
2019-05-19T10:27:11.101Z,7.30
2019-05-19T10:28:46.625Z,7.00
2019-05-19T10:30:21.930Z,7.33
2019-05-19T10:31:57.460Z,7.30
2019-05-19T10:33:32.479Z,7.30
2019-05-19T10:35:08.841Z,6.93
2019-05-19T10:36:43.857Z,7.87
2019-05-19T10:38:18.806Z,6.60
2019-05-19T10:39:53.289Z,6.67
2019-05-19T10:41:28.294Z,6.20
2019-05-19T10:46:05.859Z,6.13
2019-05-19T10:47:47.251Z,6.67
2019-05-19T10:49:30.533Z,6.30
2019-05-19T10:51:14.152Z,7.03
2019-05-19T10:53:05.576Z,6.27
2019-05-19T10:55:02.148Z,6.33
2019-05-19T10:56:37.997Z,6.30
2019-05-19T10:58:19.676Z,6.50
2019-05-19T11:00:03.120Z,6.90
2019-05-19T11:01:49.597Z,5.87
2019-05-19T11:03:47.118Z,6.63
2019-05-19T11:05:30.246Z,5.60
2019-05-19T11:09:39.424Z,6.50
2019-05-19T11:11:16.334Z,5.77
2019-05-19T11:13:54.337Z,6.03
2019-05-19T11:15:32.207Z,5.80
2019-05-19T11:17:12.487Z,5.93
2019-05-19T11:18:49.860Z,6.30
2019-05-19T11:20:33.381Z,5.83
2019-05-19T11:22:15.506Z,5.30
2019-05-19T11:24:03.922Z,5.80
2019-05-19T11:26:09.909Z,5.50
2019-05-19T11:27:51.665Z,5.73
2019-05-19T11:29:54.409Z,5.27
2019-05-19T11:31:42.845Z,5.70
2019-05-19T11:33:19.138Z,6.10
2019-05-19T11:34:54.368Z,5.67
2019-05-19T11:36:32.792Z,5.23
2019-05-19T11:38:07.655Z,5.67
2019-05-19T11:39:42.791Z,5.60
2019-05-19T11:41:20.755Z,5.93
2019-05-19T11:42:56.877Z,5.87
2019-05-19T11:44:33.675Z,5.87
2019-05-19T11:46:12.130Z,5.43
2019-05-19T11:47:49.644Z,5.90
2019-05-19T11:49:26.113Z,5.37
2019-05-19T11:51:02.180Z,5.57
2019-05-19T11:52:38.170Z,5.27
2019-05-19T11:54:13.496Z,5.57
2019-05-19T11:55:49.393Z,5.50
2019-05-19T11:57:30.208Z,5.07
2019-05-19T11:59:14.157Z,5.37
2019-05-19T12:00:51.545Z,5.30
2019-05-19T12:02:30.793Z,5.30
2019-05-19T12:04:06.119Z,5.00
2019-05-19T12:05:42.532Z,5.30
2019-05-19T12:07:19.598Z,5.70
2019-05-19T12:08:55.039Z,5.47
2019-05-19T12:10:30.130Z,5.20
2019-05-19T12:12:05.637Z,5.20
2019-05-19T12:13:40.237Z,5.70
2019-05-19T12:15:15.414Z,5.70
2019-05-19T12:16:49.833Z,5.90
2019-05-19T12:18:24.791Z,5.93
2019-05-19T12:19:59.204Z,5.70
2019-05-19T12:21:34.115Z,5.23
2019-05-19T12:23:08.731Z,5.43
2019-05-19T12:24:44.160Z,5.33
2019-05-19T12:26:23.303Z,5.43
2019-05-19T12:27:56.061Z,5.07
2019-05-19T12:29:30.496Z,5.23
2019-05-19T12:31:05.793Z,4.97
2019-05-19T12:32:40.207Z,5.20
2019-05-19T12:34:15.581Z,5.03
2019-05-19T12:35:50.800Z,5.40
2019-05-19T12:37:26.243Z,4.63
2019-05-19T12:39:01.448Z,5.03
2019-05-19T12:40:37.135Z,4.60
2019-05-19T12:42:12.088Z,4.70
2019-05-19T12:43:47.689Z,5.03
2019-05-19T12:45:23.102Z,5.60
2019-05-19T12:46:58.721Z,4.60
2019-05-19T12:48:33.791Z,5.33
2019-05-19T12:50:10.982Z,5.10
2019-05-19T12:51:45.957Z,4.87
2019-05-19T12:53:21.324Z,5.10
2019-05-19T12:54:56.372Z,5.20
2019-05-19T12:56:39.857Z,4.53
2019-05-19T12:58:09.613Z,5.27
2019-05-19T12:59:44.960Z,4.80
2019-05-19T13:01:19.921Z,4.60
2019-05-19T13:02:55.268Z,4.47
2019-05-19T13:04:30.242Z,3.97
2019-05-19T13:06:05.245Z,4.40
2019-05-19T13:07:39.746Z,4.20
2019-05-19T13:09:15.263Z,4.30
2019-05-19T13:10:50.006Z,4.10
2019-05-19T13:12:25.788Z,4.13
2019-05-19T13:14:00.857Z,4.17
2019-05-19T13:15:36.617Z,4.40
2019-05-19T13:17:11.800Z,3.70
2019-05-19T13:18:47.006Z,4.50
2019-05-19T13:20:21.991Z,3.80
2019-05-19T13:21:57.761Z,3.60
2019-05-19T13:23:32.538Z,3.73
2019-05-19T13:25:08.055Z,3.50
2019-05-19T13:26:55.594Z,3.83
2019-05-19T13:28:19.443Z,4.00
2019-05-19T13:29:53.829Z,4.07
2019-05-19T13:31:29.003Z,3.90
2019-05-19T13:33:03.690Z,4.17
2019-05-19T13:34:38.603Z,4.20
2019-05-19T13:36:12.982Z,4.53
2019-05-19T13:37:48.178Z,4.40
2019-05-19T13:39:22.539Z,4.00
2019-05-19T13:40:57.473Z,4.20
2019-05-19T13:42:32.210Z,3.60
2019-05-19T13:44:07.353Z,4.20
2019-05-19T13:45:42.378Z,4.20
2019-05-19T13:47:18.187Z,3.33
2019-05-19T13:48:52.969Z,3.70
2019-05-19T13:50:27.931Z,3.00
2019-05-19T13:52:02.704Z,3.60
2019-05-19T13:53:37.670Z,3.17
2019-05-19T13:55:12.343Z,3.50
2019-05-19T13:56:47.321Z,4.10
2019-05-19T13:58:21.804Z,3.60
2019-05-19T13:59:56.809Z,3.97
2019-05-19T14:01:31.321Z,3.60
2019-05-19T14:03:06.298Z,3.63
2019-05-19T14:04:40.754Z,3.77
2019-05-19T14:06:15.753Z,4.07
2019-05-19T14:07:50.186Z,3.60
2019-05-19T14:09:25.504Z,3.47
2019-05-19T14:11:00.336Z,3.83
2019-05-19T14:12:35.371Z,3.20
2019-05-19T14:14:09.841Z,3.30
2019-05-19T14:15:44.833Z,3.43
2019-05-19T14:17:19.210Z,3.53
2019-05-19T14:18:54.127Z,3.67
2019-05-19T14:20:28.601Z,3.90
2019-05-19T14:22:03.517Z,3.90
2019-05-19T14:23:38.229Z,4.00
2019-05-19T14:25:13.338Z,4.30
2019-05-19T14:26:47.731Z,4.20
2019-05-19T14:28:22.876Z,3.97
2019-05-19T14:29:57.316Z,4.10
2019-05-19T14:31:32.273Z,4.37
2019-05-19T14:33:06.749Z,3.80
2019-05-19T14:34:41.679Z,4.40
2019-05-19T14:36:16.438Z,4.03
2019-05-19T14:37:51.429Z,4.00
2019-05-19T14:39:25.974Z,4.40
2019-05-19T14:41:01.221Z,3.73
2019-05-19T14:43:10.049Z,4.00
2019-05-19T14:44:44.755Z,3.67
2019-05-19T14:46:19.761Z,4.30
2019-05-19T14:47:54.298Z,4.13
2019-05-19T14:49:29.277Z,3.80
2019-05-19T14:51:03.889Z,4.20
2019-05-19T14:52:38.793Z,4.10
2019-05-19T14:54:13.439Z,3.57
2019-05-19T14:55:48.451Z,3.70
2019-05-19T14:57:23.308Z,3.70
2019-05-19T14:58:58.215Z,4.40
2019-05-19T15:00:32.646Z,3.80
2019-05-19T15:02:07.587Z,4.00
2019-05-19T15:03:42.050Z,4.03
2019-05-19T15:05:17.035Z,4.10
2019-05-19T15:06:51.814Z,4.57
2019-05-19T15:08:26.790Z,3.80
2019-05-19T15:10:01.153Z,3.97
2019-05-19T15:11:36.428Z,4.17
2019-05-19T15:13:10.829Z,4.20
2019-05-19T15:14:45.876Z,4.27
2019-05-19T15:16:20.287Z,3.97
2019-05-19T15:17:55.303Z,4.40
2019-05-19T15:19:29.703Z,4.30
2019-05-19T15:21:04.750Z,4.23
2019-05-19T15:22:39.186Z,4.03
2019-05-19T15:24:14.127Z,4.00
2019-05-19T15:25:48.493Z,3.90
2019-05-19T15:27:23.395Z,3.80
2019-05-19T15:28:57.755Z,3.80
2019-05-19T15:30:32.686Z,3.70
2019-05-19T15:32:07.058Z,3.90
2019-05-19T15:33:42.475Z,3.97
2019-05-19T15:35:16.996Z,3.63
2019-05-19T15:36:52.011Z,3.80
2019-05-19T15:38:26.464Z,3.90
2019-05-19T15:40:01.733Z,3.50
2019-05-19T15:41:36.390Z,3.93
2019-05-19T15:43:11.372Z,3.80
2019-05-19T15:44:46.277Z,4.30
2019-05-19T15:46:21.540Z,3.90
2019-05-19T15:47:56.004Z,3.80
2019-05-19T15:49:31.042Z,4.10
2019-05-19T15:51:05.700Z,3.77
2019-05-19T15:52:40.939Z,4.00
2019-05-19T15:54:15.302Z,3.83
2019-05-19T15:55:50.239Z,3.60
2019-05-19T15:57:24.672Z,3.97
2019-05-19T15:58:59.931Z,4.30
2019-05-19T16:00:34.382Z,3.80
2019-05-19T16:02:09.373Z,4.00
2019-05-19T16:03:43.918Z,4.37
2019-05-19T16:05:18.903Z,4.10
2019-05-19T16:06:53.432Z,3.80
2019-05-19T16:08:28.687Z,4.00
2019-05-19T16:10:03.393Z,3.67
2019-05-19T16:11:38.678Z,4.30
2019-05-19T16:13:13.041Z,4.00
2019-05-19T16:14:47.980Z,3.93
2019-05-19T16:16:22.384Z,4.03
2019-05-19T16:17:58.164Z,4.30
2019-05-19T16:19:32.612Z,4.00
2019-05-19T16:21:07.605Z,4.43
2019-05-19T16:22:42.002Z,4.00
2019-05-19T16:24:17.650Z,3.73
2019-05-19T16:25:52.544Z,3.83
2019-05-19T16:27:27.468Z,3.90
2019-05-19T16:29:02.833Z,4.40
2019-05-19T16:30:38.347Z,4.37
2019-05-19T16:32:13.125Z,4.20
2019-05-19T16:33:48.904Z,4.00
2019-05-19T16:35:23.951Z,4.07
2019-05-19T16:37:21.676Z,3.90
2019-05-19T16:40:55.309Z,3.37
2019-05-19T16:42:31.096Z,3.60
2019-05-19T16:44:06.479Z,3.50
2019-05-19T16:45:42.324Z,4.90
2019-05-19T16:47:17.170Z,3.17
2019-05-19T16:48:52.705Z,3.70
2019-05-19T16:50:27.493Z,4.17
2019-05-19T16:52:02.994Z,3.87
2019-05-19T16:53:39.838Z,3.67
2019-05-19T16:55:28.826Z,3.53
2019-05-19T16:57:04.127Z,3.60
2019-05-19T16:58:45.291Z,3.70
2019-05-19T17:00:30.164Z,3.80
2019-05-19T17:02:08.709Z,3.63
2019-05-19T17:03:43.713Z,4.40
2019-05-19T17:08:01.300Z,3.90
2019-05-19T17:10:03.434Z,4.20
2019-05-19T17:11:45.217Z,4.23
2019-05-19T17:13:58.129Z,4.47
2019-05-19T17:15:53.955Z,4.17
2019-05-19T17:17:31.738Z,4.50
2019-05-19T17:19:07.276Z,4.33
2019-05-19T17:20:46.828Z,4.67
2019-05-19T17:22:28.257Z,4.57
2019-05-19T17:24:11.519Z,4.67
2019-05-19T17:25:53.840Z,4.77
2019-05-19T17:27:40.419Z,4.50
2019-05-19T17:29:21.530Z,4.63
2019-05-19T17:31:24.961Z,5.30
2019-05-19T17:33:17.949Z,5.20
2019-05-19T17:35:04.473Z,5.10
2019-05-19T17:36:40.503Z,5.00
2019-05-19T17:38:14.919Z,4.70
2019-05-19T17:39:49.902Z,4.90
2019-05-19T17:41:24.288Z,4.77
2019-05-19T17:42:59.244Z,5.03
2019-05-19T17:44:33.593Z,5.33
2019-05-19T17:46:08.679Z,4.80
2019-05-19T17:47:43.710Z,4.80
2019-05-19T17:49:18.737Z,4.50
2019-05-19T17:50:53.170Z,4.80
2019-05-19T17:52:28.435Z,4.47
2019-05-19T17:54:03.120Z,4.40
2019-05-19T17:55:38.146Z,4.40
2019-05-19T17:57:12.953Z,4.30
2019-05-19T17:58:48.354Z,4.60
2019-05-19T18:00:36.293Z,5.90
2019-05-19T18:02:11.522Z,6.23
2019-05-19T18:03:46.839Z,4.47
2019-05-19T18:05:21.905Z,4.70
2019-05-19T18:06:56.309Z,5.20
2019-05-19T18:08:31.659Z,4.53
2019-05-19T18:10:07.000Z,4.37
2019-05-19T18:11:42.224Z,4.77
2019-05-19T18:13:16.692Z,4.97
2019-05-19T18:14:51.678Z,5.10
2019-05-19T18:16:26.904Z,5.07
2019-05-19T18:18:01.934Z,5.10
2019-05-19T18:19:36.670Z,4.67
2019-05-19T18:21:11.871Z,4.83
2019-05-19T18:22:46.260Z,4.73
2019-05-19T18:24:21.523Z,5.40
2019-05-19T18:25:56.498Z,4.70
2019-05-19T18:27:32.366Z,4.57
2019-05-19T18:29:07.156Z,5.27
2019-05-19T18:30:43.175Z,5.27
2019-05-19T18:32:18.135Z,5.20
2019-05-19T18:33:53.710Z,4.83
2019-05-19T18:35:28.126Z,5.40
2019-05-19T18:37:03.219Z,5.73
2019-05-19T18:38:37.607Z,5.25
2019-05-19T18:40:12.936Z,5.70
2019-05-19T18:41:47.491Z,5.27
2019-05-19T18:43:22.532Z,5.30
2019-05-19T18:44:56.919Z,5.47
2019-05-19T18:46:32.119Z,5.57
2019-05-19T18:48:06.858Z,5.17
2019-05-19T18:49:41.787Z,5.30
2019-05-19T18:51:16.174Z,5.30
2019-05-19T18:52:51.086Z,5.30
2019-05-19T18:54:25.749Z,5.50
2019-05-19T18:56:00.733Z,5.07
2019-05-19T18:57:35.198Z,5.30
2019-05-19T18:59:10.110Z,5.80
2019-05-19T19:00:44.566Z,5.77
2019-05-19T19:02:19.914Z,6.10
2019-05-19T19:03:54.330Z,6.80
2019-05-19T19:05:29.319Z,6.60
2019-05-19T19:07:03.788Z,5.87
2019-05-19T19:08:38.702Z,5.80
2019-05-19T19:10:13.162Z,6.20
2019-05-19T19:11:48.070Z,6.27
2019-05-19T19:13:22.514Z,6.10
2019-05-19T19:14:57.463Z,6.23
2019-05-19T19:16:31.819Z,6.10
2019-05-19T19:18:06.740Z,5.80
2019-05-19T19:19:41.423Z,6.93
2019-05-19T19:21:16.338Z,6.13
2019-05-19T19:22:51.144Z,5.60
2019-05-19T19:24:26.088Z,6.27
2019-05-19T19:26:00.527Z,6.53
2019-05-19T19:27:35.443Z,6.40
2019-05-19T19:29:10.114Z,6.17
2019-05-19T19:30:45.371Z,6.13
2019-05-19T19:32:19.749Z,6.03
2019-05-19T19:33:54.946Z,6.10
2019-05-19T19:35:38.286Z,6.40
2019-05-19T19:37:06.119Z,6.17
2019-05-19T19:38:40.779Z,5.80
2019-05-19T19:40:19.495Z,5.87
2019-05-19T19:41:54.162Z,6.03
2019-05-19T19:43:29.155Z,5.80
2019-05-19T19:45:03.795Z,6.20
2019-05-19T19:46:38.787Z,5.40
2019-05-19T19:48:13.198Z,6.27
2019-05-19T19:49:48.432Z,6.37
2019-05-19T19:51:23.164Z,6.00
2019-05-19T19:52:58.439Z,6.83
2019-05-19T19:54:33.091Z,6.20
2019-05-19T19:56:08.014Z,6.53
2019-05-19T19:57:42.760Z,6.53
2019-05-19T19:59:17.695Z,6.80
2019-05-19T20:00:52.084Z,6.30
2019-05-19T20:02:26.998Z,7.50
2019-05-19T20:04:01.385Z,7.40
2019-05-19T20:05:36.380Z,6.80
2019-05-19T20:07:11.078Z,7.20
2019-05-19T20:08:46.332Z,6.73
2019-05-19T20:10:21.030Z,6.63
2019-05-19T20:11:55.974Z,7.03
2019-05-19T20:13:30.354Z,6.23
2019-05-19T20:15:05.451Z,6.93
2019-05-19T20:16:39.845Z,5.83
2019-05-19T20:18:14.834Z,6.43
2019-05-19T20:19:49.209Z,6.30
2019-05-19T20:21:24.115Z,5.87
2019-05-19T20:22:58.499Z,6.50
2019-05-19T20:24:33.731Z,6.03
2019-05-19T20:26:08.458Z,6.73
2019-05-19T20:27:43.442Z,7.13
2019-05-19T20:29:17.826Z,7.30
2019-05-19T20:30:52.776Z,8.10
2019-05-19T20:32:27.536Z,7.40
2019-05-19T20:34:02.795Z,7.33
2019-05-19T20:35:37.151Z,7.90
2019-05-19T20:37:15.141Z,7.70
2019-05-19T20:38:48.177Z,7.67
2019-05-19T20:40:23.395Z,7.17
2019-05-19T20:41:57.985Z,6.90
2019-05-19T20:43:32.908Z,6.73
2019-05-19T20:45:08.173Z,7.50
2019-05-19T20:46:43.137Z,7.27
2019-05-19T20:48:17.585Z,7.40
2019-05-19T20:49:52.512Z,7.07
2019-05-19T20:51:27.467Z,7.47
2019-05-19T20:53:02.549Z,7.57
2019-05-19T20:54:37.211Z,7.80
2019-05-19T20:56:12.434Z,7.47
2019-05-19T20:57:46.789Z,7.90
2019-05-19T20:59:21.988Z,7.07
2019-05-19T21:00:56.714Z,7.20
2019-05-19T21:02:31.704Z,7.33
2019-05-19T21:04:06.138Z,8.17
2019-05-19T21:05:41.379Z,7.80
2019-05-19T21:07:15.740Z,7.10
2019-05-19T21:08:50.658Z,7.40
2019-05-19T21:10:25.405Z,7.23
2019-05-19T21:12:00.983Z,7.30
2019-05-19T21:13:35.699Z,7.30